Time;durP1;ratioP1;P1;durP2;ratioP2;P2;SDS_P1;SDS_P2;PMS_P1;PMS_P2;Temp;Humidity;BMP_temperature;BMP_pressure;BME280_temperature;BME280_humidity;BME280_pressure;Samples;Min_cycle;Max_cycle;Signal;HPM_P1;HPM_P2
2022/05/07 00:02:09;;;;;;;46.38;31.90;;;13.10;99.90;;;;;;5056880;28;20082;-71
2022/05/07 00:04:38;;;;;;;46.88;32.28;;;13.10;99.90;;;;;;5060400;28;20339;-72
2022/05/07 00:07:05;;;;;;;46.15;32.35;;;13.20;99.90;;;;;;5041201;28;20262;-69
2022/05/07 00:09:31;;;;;;;49.33;32.03;;;13.20;99.90;;;;;;5059198;28;20082;-70
2022/05/07 00:11:58;;;;;;;49.72;32.58;;;13.20;99.90;;;;;;5053984;28;20047;-69
2022/05/07 00:14:24;;;;;;;46.65;31.83;;;13.30;99.90;;;;;;5040833;28;20033;-73
2022/05/07 00:19:34;;;;;;;45.33;30.58;;;13.30;99.90;;;;;;5044712;28;20029;-70
2022/05/07 00:22:01;;;;;;;43.42;30.20;;;13.30;99.90;;;;;;5024943;28;20017;-71
2022/05/07 00:24:27;;;;;;;44.38;30.42;;;13.40;99.90;;;;;;5026783;28;20048;-71
2022/05/07 00:26:52;;;;;;;41.63;29.70;;;13.40;99.90;;;;;;5092055;28;20029;-70
2022/05/07 00:29:18;;;;;;;41.33;28.85;;;13.40;99.90;;;;;;5059959;28;20060;-71
2022/05/07 00:31:44;;;;;;;43.17;28.77;;;13.50;99.90;;;;;;5037177;28;20227;-71
2022/05/07 00:34:10;;;;;;;44.42;32.65;;;13.50;99.90;;;;;;5058807;28;20029;-71
2022/05/07 00:36:36;;;;;;;46.70;30.33;;;13.60;99.90;;;;;;5046582;28;20302;-71
2022/05/07 00:39:02;;;;;;;47.53;30.85;;;13.60;99.90;;;;;;5042267;28;20036;-71
2022/05/07 00:41:28;;;;;;;47.22;31.88;;;13.70;99.90;;;;;;5039184;28;20043;-70
2022/05/07 00:43:54;;;;;;;43.05;30.17;;;13.80;99.90;;;;;;5060858;28;20032;-71
2022/05/07 00:46:25;;;;;;;46.78;31.85;;;13.70;99.90;;;;;;5084734;28;20048;-72
2022/05/07 00:48:52;;;;;;;46.30;30.27;;;13.80;99.90;;;;;;5053711;28;20116;-71
2022/05/07 00:51:34;;;;;;;43.85;30.15;;;13.80;99.90;;;;;;5087960;28;20037;-72
2022/05/07 00:54:05;;;;;;;50.63;32.85;;;13.90;99.90;;;;;;5065897;28;20040;-73
2022/05/07 00:56:32;;;;;;;44.67;32.72;;;13.90;99.90;;;;;;5055418;28;20208;-72
2022/05/07 00:58:58;;;;;;;43.60;31.55;;;13.90;99.90;;;;;;5035872;28;20113;-71
2022/05/07 01:01:25;;;;;;;44.53;31.77;;;13.90;99.90;;;;;;5053110;28;20044;-71
2022/05/07 01:03:52;;;;;;;44.53;30.75;;;13.90;99.90;;;;;;5085713;28;20029;-72
2022/05/07 01:06:18;;;;;;;44.65;28.77;;;13.90;99.90;;;;;;5056237;28;20048;-71
2022/05/07 01:08:46;;;;;;;41.70;27.75;;;13.90;99.90;;;;;;5060936;28;20025;-71
2022/05/07 01:11:14;;;;;;;41.08;29.30;;;13.80;99.90;;;;;;5060203;28;20034;-73
2022/05/07 01:13:41;;;;;;;45.42;30.92;;;13.90;99.90;;;;;;5054136;28;20033;-70
2022/05/07 01:16:06;;;;;;;44.47;31.33;;;14.00;99.90;;;;;;5060098;28;20029;-70
2022/05/07 01:18:32;;;;;;;43.95;29.83;;;13.80;99.90;;;;;;5078622;28;20273;-70
2022/05/07 01:20:58;;;;;;;50.58;32.03;;;13.90;99.90;;;;;;5037361;28;20064;-73
2022/05/07 01:23:26;;;;;;;44.78;28.90;;;13.80;99.90;;;;;;5045526;28;20339;-71
2022/05/07 01:25:58;;;;;;;46.90;32.53;;;13.70;99.90;;;;;;5052505;28;20028;-73
2022/05/07 01:28:23;;;;;;;48.78;33.65;;;13.70;99.90;;;;;;5060978;28;20330;-73
2022/05/07 01:30:49;;;;;;;46.13;33.70;;;13.80;99.90;;;;;;5071024;28;20029;-72
2022/05/07 01:33:14;;;;;;;46.95;31.80;;;13.70;99.90;;;;;;5038631;28;20079;-71
2022/05/07 01:35:40;;;;;;;43.15;30.88;;;13.90;99.90;;;;;;5050804;28;20207;-70
2022/05/07 01:38:06;;;;;;;44.15;30.92;;;13.90;99.90;;;;;;5062243;28;20100;-70
2022/05/07 01:40:31;;;;;;;46.92;32.25;;;13.90;99.90;;;;;;5058298;28;20044;-71
2022/05/07 01:42:57;;;;;;;44.78;32.33;;;14.00;99.90;;;;;;5060264;28;20032;-71
2022/05/07 01:45:23;;;;;;;42.60;30.42;;;13.90;99.90;;;;;;5044664;28;20071;-70
2022/05/07 01:50:32;;;;;;;40.60;28.00;;;13.90;99.90;;;;;;5051926;28;20110;-72
2022/05/07 01:52:58;;;;;;;43.38;30.90;;;14.00;99.90;;;;;;5095375;28;20238;-70
2022/05/07 01:55:24;;;;;;;41.78;29.08;;;14.20;99.90;;;;;;5062622;28;20055;-70
2022/05/07 01:57:50;;;;;;;40.67;29.02;;;14.00;99.90;;;;;;5065615;28;20044;-72
2022/05/07 02:00:16;;;;;;;38.60;26.02;;;14.10;99.90;;;;;;5061713;28;20043;-73
2022/05/07 02:02:42;;;;;;;39.20;27.70;;;14.00;99.90;;;;;;5079108;28;20044;-71
2022/05/07 02:05:07;;;;;;;40.83;28.52;;;14.00;99.90;;;;;;5064143;28;20091;-72
2022/05/07 02:07:33;;;;;;;41.00;29.05;;;14.20;99.90;;;;;;5057476;28;20355;-73
2022/05/07 02:09:59;;;;;;;40.38;28.30;;;14.10;99.90;;;;;;5073462;28;20092;-73
2022/05/07 02:12:24;;;;;;;43.22;27.40;;;14.10;99.90;;;;;;5028530;28;20029;-70
2022/05/07 02:14:50;;;;;;;41.05;28.73;;;14.20;99.90;;;;;;5061434;28;20032;-71
2022/05/07 02:17:16;;;;;;;39.25;27.63;;;14.20;99.90;;;;;;5046270;28;20062;-73
2022/05/07 02:19:41;;;;;;;40.30;26.00;;;14.20;99.90;;;;;;5031296;28;20082;-71
2022/05/07 02:22:07;;;;;;;36.72;26.55;;;14.10;99.90;;;;;;5055955;28;20025;-73
2022/05/07 02:24:32;;;;;;;43.42;28.13;;;14.30;99.90;;;;;;5054368;28;20330;-70
2022/05/07 02:26:59;;;;;;;41.25;28.95;;;14.30;99.90;;;;;;5047570;28;20024;-70
2022/05/07 02:29:24;;;;;;;45.22;29.80;;;14.10;99.90;;;;;;5043790;28;20087;-69
2022/05/07 02:32:06;;;;;;;40.60;28.25;;;14.20;99.90;;;;;;5041102;28;20091;-74
2022/05/07 02:34:36;;;;;;;41.25;27.70;;;14.40;99.90;;;;;;5041832;28;20036;-71
2022/05/07 02:37:04;;;;;;;39.67;26.73;;;14.40;99.90;;;;;;5053225;28;20031;-72
2022/05/07 02:39:29;;;;;;;43.95;29.27;;;14.30;99.90;;;;;;5063929;28;20099;-72
2022/05/07 02:44:40;;;;;;;33.55;24.08;;;14.30;99.90;;;;;;5054036;28;20067;-71
2022/05/07 02:47:06;;;;;;;33.85;24.48;;;14.40;99.90;;;;;;5051007;28;20044;-69
2022/05/07 02:49:32;;;;;;;39.58;26.33;;;14.50;99.90;;;;;;5049106;28;20368;-69
2022/05/07 02:51:58;;;;;;;37.22;25.45;;;14.40;99.90;;;;;;5048021;28;20115;-71
2022/05/07 02:54:24;;;;;;;38.95;25.45;;;14.30;99.90;;;;;;5055679;28;20044;-70
2022/05/07 02:56:50;;;;;;;36.88;25.77;;;14.40;99.90;;;;;;5063837;28;20039;-70
2022/05/07 02:59:15;;;;;;;36.67;25.70;;;14.40;99.90;;;;;;5057564;28;20339;-69
2022/05/07 03:01:41;;;;;;;36.38;25.60;;;14.40;99.90;;;;;;5028773;28;20076;-69
2022/05/07 03:04:09;;;;;;;33.55;24.75;;;14.30;99.90;;;;;;5062601;28;20044;-71
2022/05/07 03:06:35;;;;;;;39.30;27.67;;;14.30;99.90;;;;;;5055875;28;20040;-69
2022/05/07 03:09:01;;;;;;;35.05;24.70;;;14.30;99.90;;;;;;5080441;28;20092;-71
2022/05/07 03:11:26;;;;;;;38.55;26.83;;;14.30;99.90;;;;;;5063192;28;20036;-72
2022/05/07 03:13:52;;;;;;;37.00;24.08;;;14.30;99.90;;;;;;5048452;28;20074;-71
2022/05/07 03:16:18;;;;;;;36.30;25.80;;;14.30;99.90;;;;;;5045381;28;20043;-69
2022/05/07 03:18:44;;;;;;;34.90;24.70;;;14.40;99.90;;;;;;5033618;28;20079;-71
2022/05/07 03:21:10;;;;;;;33.42;25.00;;;14.50;99.90;;;;;;5047829;28;20033;-72
2022/05/07 03:23:35;;;;;;;39.10;26.98;;;14.40;99.90;;;;;;5093946;28;20040;-70
2022/05/07 03:26:01;;;;;;;39.05;27.20;;;14.40;99.90;;;;;;5052632;28;20158;-70
2022/05/07 03:28:27;;;;;;;39.80;25.58;;;14.40;99.90;;;;;;5053793;28;20028;-71
2022/05/07 03:30:52;;;;;;;35.25;24.70;;;14.30;99.90;;;;;;5047688;28;20033;-72
2022/05/07 03:33:18;;;;;;;40.00;27.50;;;14.30;99.90;;;;;;5051656;28;20103;-70
2022/05/07 03:35:44;;;;;;;36.67;27.02;;;14.30;99.90;;;;;;5066328;28;20299;-71
2022/05/07 03:38:10;;;;;;;38.85;27.95;;;14.20;99.90;;;;;;5052067;28;20031;-70
2022/05/07 03:40:36;;;;;;;39.20;27.25;;;14.10;99.90;;;;;;5070026;28;20035;-72
2022/05/07 03:43:03;;;;;;;38.30;27.40;;;14.20;99.90;;;;;;5038306;28;20094;-72
2022/05/07 03:45:30;;;;;;;36.78;27.02;;;14.10;99.90;;;;;;5049724;28;20048;-70
2022/05/07 03:47:56;;;;;;;42.38;27.08;;;14.10;99.90;;;;;;5079222;28;20045;-74
2022/05/07 03:50:22;;;;;;;38.20;26.75;;;14.10;99.90;;;;;;5052827;28;20059;-71
2022/05/07 03:55:32;;;;;;;38.35;25.95;;;13.90;99.90;;;;;;5079652;28;20032;-69
2022/05/07 03:57:58;;;;;;;40.05;26.60;;;13.90;99.90;;;;;;5032758;28;20212;-73
2022/05/07 04:00:23;;;;;;;36.72;26.85;;;13.90;99.90;;;;;;5070162;28;20028;-71
2022/05/07 04:02:49;;;;;;;43.25;26.48;;;13.60;99.90;;;;;;5053411;28;20120;-74
2022/05/07 04:05:15;;;;;;;41.85;26.65;;;13.70;99.90;;;;;;5078163;28;20052;-70
2022/05/07 04:07:41;;;;;;;40.35;27.75;;;13.60;99.90;;;;;;5032008;28;20029;-72
2022/05/07 04:10:07;;;;;;;46.17;27.63;;;13.50;99.90;;;;;;5062666;28;20025;-70
2022/05/07 04:12:33;;;;;;;43.00;27.63;;;13.60;99.90;;;;;;5067461;28;20107;-72
2022/05/07 04:15:00;;;;;;;39.42;27.40;;;13.80;99.90;;;;;;5034045;28;20075;-72
2022/05/07 04:17:26;;;;;;;41.10;26.50;;;13.70;99.90;;;;;;5042885;28;20133;-70
2022/05/07 04:19:52;;;;;;;41.40;28.08;;;13.80;99.90;;;;;;5066520;28;20036;-70
2022/05/07 04:22:17;;;;;;;40.28;26.77;;;13.80;99.90;;;;;;5067338;28;20123;-71
2022/05/07 04:24:43;;;;;;;34.42;25.70;;;13.80;99.90;;;;;;5046129;28;20043;-70
2022/05/07 04:27:09;;;;;;;42.13;28.77;;;13.70;99.90;;;;;;5045614;28;20064;-70
2022/05/07 04:29:35;;;;;;;46.50;30.02;;;13.80;99.90;;;;;;5029187;28;20028;-70
2022/05/07 04:32:01;;;;;;;40.55;28.63;;;13.90;99.90;;;;;;5071347;28;20044;-70
2022/05/07 04:34:28;;;;;;;40.65;27.90;;;13.80;99.90;;;;;;5029308;28;20035;-69
2022/05/07 04:36:54;;;;;;;40.72;28.83;;;13.90;99.90;;;;;;5061269;28;20032;-72
2022/05/07 04:39:20;;;;;;;38.67;28.13;;;14.00;99.90;;;;;;5092203;28;20032;-71
2022/05/07 04:41:46;;;;;;;40.17;28.25;;;14.00;99.90;;;;;;5063443;28;20338;-72
2022/05/07 04:44:12;;;;;;;40.40;27.98;;;13.90;99.90;;;;;;5052705;28;20051;-71
2022/05/07 04:46:39;;;;;;;37.65;27.40;;;14.00;99.90;;;;;;5064957;28;20107;-70
2022/05/07 04:49:06;;;;;;;40.45;27.90;;;14.00;99.90;;;;;;5072665;28;20060;-71
2022/05/07 04:51:32;;;;;;;39.50;27.30;;;13.90;99.90;;;;;;5079414;28;20382;-69
2022/05/07 04:53:57;;;;;;;39.78;27.70;;;14.00;99.90;;;;;;5049405;28;20036;-71
2022/05/07 04:56:24;;;;;;;36.53;27.10;;;14.00;99.90;;;;;;5055107;28;20047;-71
2022/05/07 04:58:51;;;;;;;40.65;27.70;;;14.10;99.90;;;;;;5067337;28;20795;-69
2022/05/07 05:01:17;;;;;;;38.35;28.00;;;14.00;99.90;;;;;;5072192;28;20044;-69
2022/05/07 05:03:43;;;;;;;37.55;26.85;;;14.10;99.90;;;;;;5057509;28;20127;-68
2022/05/07 05:06:09;;;;;;;36.80;26.52;;;14.20;99.90;;;;;;5036901;28;20421;-70
2022/05/07 05:08:34;;;;;;;38.47;27.65;;;14.10;99.90;;;;;;5046430;28;20052;-70
2022/05/07 05:11:00;;;;;;;39.50;27.13;;;14.10;99.90;;;;;;5055983;28;20223;-69
2022/05/07 05:13:25;;;;;;;36.25;27.45;;;14.40;99.90;;;;;;5030281;28;20030;-69
2022/05/07 05:15:51;;;;;;;39.92;28.35;;;14.40;99.90;;;;;;5053389;28;20052;-73
2022/05/07 05:18:17;;;;;;;38.30;27.05;;;14.30;99.90;;;;;;5052819;28;20039;-71
2022/05/07 05:20:43;;;;;;;39.05;27.80;;;14.40;99.90;;;;;;5052721;28;20059;-70
2022/05/07 05:23:09;;;;;;;35.88;27.40;;;14.20;99.90;;;;;;5067288;28;20032;-72
2022/05/07 05:25:34;;;;;;;35.45;27.35;;;14.40;99.90;;;;;;5068687;28;20044;-70
2022/05/07 05:28:00;;;;;;;36.35;26.60;;;14.50;99.90;;;;;;5035790;28;20028;-71
2022/05/07 05:30:26;;;;;;;39.53;26.35;;;14.30;99.90;;;;;;5061525;28;20316;-73
2022/05/07 05:32:52;;;;;;;40.03;28.75;;;14.60;99.90;;;;;;5075350;28;20024;-70
2022/05/07 05:35:17;;;;;;;39.35;29.38;;;14.60;99.90;;;;;;5070067;28;20131;-70
2022/05/07 05:37:43;;;;;;;38.60;28.58;;;14.60;99.90;;;;;;5088184;28;20041;-72
2022/05/07 05:40:09;;;;;;;36.92;28.25;;;14.60;99.90;;;;;;5076042;28;20059;-70
2022/05/07 05:42:35;;;;;;;37.28;27.70;;;14.60;99.90;;;;;;5086731;28;20249;-72
2022/05/07 05:45:01;;;;;;;39.75;30.02;;;14.70;99.90;;;;;;5035231;28;20040;-72
2022/05/07 05:47:26;;;;;;;41.75;29.10;;;14.60;99.90;;;;;;5036345;28;20064;-70
2022/05/07 05:49:52;;;;;;;41.40;28.60;;;14.60;99.90;;;;;;5055478;28;20326;-72
2022/05/07 05:52:18;;;;;;;40.28;28.13;;;14.70;99.90;;;;;;5049060;28;20071;-73
2022/05/07 05:54:45;;;;;;;38.97;28.67;;;14.70;99.90;;;;;;5050645;28;20040;-70
2022/05/07 05:57:10;;;;;;;41.55;29.85;;;14.70;99.90;;;;;;5052255;28;20029;-71
2022/05/07 05:59:36;;;;;;;37.50;27.55;;;14.70;99.90;;;;;;5052251;28;20040;-70
2022/05/07 06:02:02;;;;;;;40.22;29.25;;;14.80;99.90;;;;;;5054845;28;20031;-71
2022/05/07 06:04:28;;;;;;;40.17;29.13;;;14.80;99.90;;;;;;5049741;28;20040;-69
2022/05/07 06:06:54;;;;;;;42.30;31.23;;;14.90;99.90;;;;;;5043458;28;20334;-71
2022/05/07 06:09:21;;;;;;;39.72;28.52;;;14.80;99.90;;;;;;5050965;28;20327;-71
2022/05/07 06:11:47;;;;;;;40.00;29.65;;;15.00;99.90;;;;;;5067773;28;20071;-72
2022/05/07 06:14:13;;;;;;;45.72;30.58;;;15.10;99.90;;;;;;5037924;28;20037;-72
2022/05/07 06:16:39;;;;;;;41.92;29.63;;;15.10;99.90;;;;;;5047841;28;20028;-70
2022/05/07 06:19:05;;;;;;;37.13;29.25;;;15.10;99.90;;;;;;5085951;28;20046;-75
2022/05/07 06:21:31;;;;;;;39.50;28.38;;;15.10;99.90;;;;;;5082214;28;20312;-72
2022/05/07 06:27:28;;;;;;;36.53;28.00;;;15.20;99.90;;;;;;5052559;28;20036;-71
2022/05/07 06:29:26;;;;;;;38.08;27.38;;;15.00;99.90;;;;;;5051572;28;20223;-70
2022/05/07 06:31:52;;;;;;;35.70;25.80;;;15.10;99.90;;;;;;5048270;28;20033;-72
2022/05/07 06:34:22;;;;;;;34.67;25.65;;;15.10;99.90;;;;;;5084533;28;20052;-71
2022/05/07 06:36:47;;;;;;;30.88;24.80;;;15.10;99.90;;;;;;5091941;28;20033;-70
2022/05/07 06:39:15;;;;;;;38.70;28.23;;;15.10;99.90;;;;;;5061955;28;20254;-71
2022/05/07 06:41:41;;;;;;;33.40;26.02;;;15.20;99.90;;;;;;5095075;28;20032;-70
2022/05/07 06:44:07;;;;;;;32.65;24.25;;;15.30;99.90;;;;;;5063672;28;20354;-69
2022/05/07 06:46:33;;;;;;;28.83;22.88;;;15.30;99.90;;;;;;5045520;28;20052;-71
2022/05/07 06:48:58;;;;;;;32.83;25.40;;;15.10;99.90;;;;;;5062452;28;20095;-68
2022/05/07 06:51:25;;;;;;;33.75;24.85;;;15.40;99.90;;;;;;5062532;28;20029;-68
2022/05/07 06:53:50;;;;;;;32.38;23.92;;;15.60;99.90;;;;;;5064253;28;20038;-70
2022/05/07 06:56:16;;;;;;;32.20;25.58;;;15.70;99.90;;;;;;5081340;28;20033;-71
2022/05/07 06:58:42;;;;;;;31.10;23.45;;;15.80;99.90;;;;;;5015031;28;20044;-70
2022/05/07 07:01:08;;;;;;;34.20;22.70;;;15.80;99.90;;;;;;5044382;28;20033;-72
2022/05/07 07:03:33;;;;;;;29.55;22.17;;;15.80;99.90;;;;;;5054774;28;20028;-70
2022/05/07 07:06:00;;;;;;;24.13;21.25;;;15.70;99.90;;;;;;5061294;28;20047;-68
2022/05/07 07:08:29;;;;;;;24.38;20.33;;;15.70;99.90;;;;;;5028433;28;20059;-71
2022/05/07 07:10:54;;;;;;;23.38;19.33;;;15.70;99.90;;;;;;5081455;28;20319;-72
2022/05/07 07:13:20;;;;;;;25.02;19.30;;;15.70;99.90;;;;;;5031372;28;20031;-72
2022/05/07 07:15:46;;;;;;;26.10;20.77;;;15.80;99.90;;;;;;5068635;28;20029;-69
2022/05/07 07:18:12;;;;;;;24.65;18.90;;;16.10;99.90;;;;;;5053937;28;20551;-70
2022/05/07 07:20:42;;;;;;;26.02;20.30;;;16.20;99.90;;;;;;5034879;28;20064;-68
2022/05/07 07:23:12;;;;;;;26.48;19.95;;;15.90;99.90;;;;;;5049910;28;20279;-69
2022/05/07 07:25:39;;;;;;;25.92;20.45;;;16.10;99.90;;;;;;5040719;28;20043;-69
2022/05/07 07:28:05;;;;;;;22.95;18.63;;;16.10;99.90;;;;;;5050703;28;20064;-69
2022/05/07 07:30:31;;;;;;;26.15;19.77;;;16.40;99.90;;;;;;5044027;28;20127;-69
2022/05/07 07:32:57;;;;;;;26.83;21.00;;;16.50;99.90;;;;;;5038548;28;20083;-68
2022/05/07 07:35:23;;;;;;;26.85;20.48;;;16.70;99.90;;;;;;5043330;28;20052;-69
2022/05/07 07:37:49;;;;;;;26.40;20.23;;;16.70;99.90;;;;;;5060664;28;20048;-69
2022/05/07 07:40:15;;;;;;;25.50;20.63;;;16.50;99.90;;;;;;5044359;28;20044;-69
2022/05/07 07:42:41;;;;;;;24.85;18.25;;;16.40;99.90;;;;;;5042720;28;20290;-71
2022/05/07 07:48:03;;;;;;;25.40;20.08;;;16.40;99.90;;;;;;5040531;28;20049;-70
2022/05/07 07:50:31;;;;;;;25.30;20.10;;;16.50;99.90;;;;;;5046566;28;20044;-71
2022/05/07 07:52:59;;;;;;;25.45;19.63;;;16.30;99.90;;;;;;5046035;28;20087;-70
2022/05/07 07:55:25;;;;;;;24.80;19.25;;;16.70;99.90;;;;;;5045672;28;20412;-70
2022/05/07 07:57:59;;;;;;;25.05;19.92;;;16.50;99.90;;;;;;5040901;28;20366;-68
2022/05/07 08:00:26;;;;;;;24.83;19.83;;;16.50;99.90;;;;;;5043028;28;20036;-71
2022/05/07 08:02:55;;;;;;;25.75;20.08;;;16.70;99.90;;;;;;5041663;28;20045;-69
2022/05/07 08:05:28;;;;;;;26.42;20.05;;;16.80;99.90;;;;;;5026791;28;20107;-70
2022/05/07 08:13:24;;;;;;;29.73;22.20;;;17.30;99.90;;;;;;5078332;28;20103;-70
2022/05/07 08:15:50;;;;;;;29.30;23.30;;;17.30;99.90;;;;;;5029310;28;20063;-68
2022/05/07 08:18:16;;;;;;;34.15;24.52;;;17.20;99.90;;;;;;5051652;28;20036;-71
2022/05/07 08:20:43;;;;;;;28.38;21.80;;;16.80;99.90;;;;;;5073710;28;20044;-71
2022/05/07 08:23:11;;;;;;;29.95;23.50;;;16.80;99.90;;;;;;5031919;28;20041;-70
2022/05/07 08:25:37;;;;;;;33.60;24.08;;;16.70;99.90;;;;;;5048114;28;20140;-72
2022/05/07 08:28:04;;;;;;;31.15;24.38;;;16.70;99.90;;;;;;5079699;28;20028;-71
2022/05/07 08:30:30;;;;;;;32.97;23.63;;;16.80;99.90;;;;;;5050210;28;20340;-72
2022/05/07 08:32:56;;;;;;;28.33;23.27;;;16.70;99.90;;;;;;5084631;28;20036;-70
2022/05/07 08:35:22;;;;;;;31.52;24.50;;;16.80;99.90;;;;;;5026336;28;20045;-68
2022/05/07 08:37:48;;;;;;;30.33;25.70;;;16.90;99.90;;;;;;5074986;28;20033;-69
2022/05/07 08:40:16;;;;;;;33.67;26.35;;;17.00;99.90;;;;;;5041919;28;20037;-70
2022/05/07 08:42:42;;;;;;;31.05;24.85;;;16.90;99.90;;;;;;5040919;28;20045;-69
2022/05/07 08:45:09;;;;;;;31.02;24.52;;;17.00;99.90;;;;;;5047825;28;20040;-69
2022/05/07 08:47:35;;;;;;;31.50;23.27;;;16.80;99.90;;;;;;5045395;28;20055;-70
2022/05/07 08:50:01;;;;;;;32.03;25.67;;;16.40;99.90;;;;;;5058498;28;20049;-69
2022/05/07 08:52:30;;;;;;;32.50;24.52;;;16.50;99.90;;;;;;5052155;28;20029;-70
2022/05/07 08:54:57;;;;;;;30.95;23.85;;;16.60;99.90;;;;;;5083382;28;20236;-70
2022/05/07 08:57:24;;;;;;;34.03;24.75;;;16.20;99.90;;;;;;5053731;28;20033;-70
2022/05/07 08:59:53;;;;;;;33.10;24.80;;;16.40;99.90;;;;;;5045389;28;20040;-69
2022/05/07 09:02:20;;;;;;;34.70;25.30;;;16.30;99.90;;;;;;5068526;28;20417;-69
2022/05/07 09:04:56;;;;;;;30.52;25.38;;;16.50;99.90;;;;;;5012575;28;20362;-69
2022/05/07 09:07:22;;;;;;;32.00;24.60;;;16.90;99.90;;;;;;5081026;28;20024;-70
2022/05/07 09:09:49;;;;;;;32.55;24.15;;;17.00;99.90;;;;;;5048203;28;20223;-68
2022/05/07 09:12:28;;;;;;;32.85;24.80;;;16.90;99.90;;;;;;5078894;28;20074;-71
2022/05/07 09:15:01;;;;;;;31.05;23.65;;;17.00;99.90;;;;;;5052779;28;20044;-70
2022/05/07 09:17:28;;;;;;;33.30;25.35;;;16.80;99.90;;;;;;5037641;28;20037;-71
2022/05/07 09:19:53;;;;;;;30.80;24.55;;;17.00;99.90;;;;;;5067773;28;20106;-72
2022/05/07 09:22:19;;;;;;;28.42;23.88;;;17.10;99.90;;;;;;5035829;28;20227;-72
2022/05/07 09:24:58;;;;;;;31.85;23.73;;;17.10;99.90;;;;;;5047166;28;21148;-70
2022/05/07 09:27:24;;;;;;;30.35;23.05;;;17.30;99.90;;;;;;5068276;28;20225;-74
2022/05/07 09:30:03;;;;;;;26.70;22.33;;;17.50;99.90;;;;;;5066360;28;20028;-72
2022/05/07 09:32:36;;;;;;;28.95;23.45;;;17.20;99.90;;;;;;5070375;28;20095;-71
2022/05/07 09:38:04;;;;;;;29.55;21.83;;;17.50;99.90;;;;;;5079501;28;20108;-72
2022/05/07 09:40:30;;;;;;;27.50;21.02;;;17.20;99.90;;;;;;5049625;28;20036;-71
2022/05/07 09:42:57;;;;;;;24.60;20.48;;;17.00;99.90;;;;;;5055163;28;20032;-70
2022/05/07 09:45:27;;;;;;;24.67;19.90;;;16.80;99.90;;;;;;5085493;28;20250;-70
2022/05/07 09:48:00;;;;;;;28.67;21.67;;;16.90;99.90;;;;;;5064546;28;20534;-71
2022/05/07 09:50:44;;;;;;;24.75;20.30;;;17.00;99.90;;;;;;5029505;28;20126;-72
2022/05/07 09:59:01;;;;;;;25.33;19.67;;;17.00;99.90;;;;;;4957196;28;20348;-71
2022/05/07 10:01:47;;;;;;;28.20;21.73;;;17.10;99.90;;;;;;5022687;28;21291;-70
2022/05/07 10:04:36;;;;;;;27.60;20.30;;;17.40;99.90;;;;;;5052213;28;20619;-72
2022/05/07 10:07:02;;;;;;;26.83;20.67;;;17.60;99.90;;;;;;5077750;28;20599;-73
2022/05/07 10:09:43;;;;;;;29.98;21.15;;;17.60;99.90;;;;;;5085588;28;20395;-70
2022/05/07 10:12:19;;;;;;;28.02;21.08;;;17.40;99.90;;;;;;5049484;28;20319;-70
2022/05/07 10:14:45;;;;;;;24.85;21.25;;;17.50;99.90;;;;;;5048218;28;20037;-71
2022/05/07 10:17:12;;;;;;;30.05;21.25;;;17.60;99.90;;;;;;5067153;28;20165;-72
2022/05/07 10:19:42;;;;;;;29.17;20.75;;;17.70;99.90;;;;;;5053109;28;20043;-71
2022/05/07 10:22:21;;;;;;;27.67;21.33;;;17.50;99.90;;;;;;5084296;28;20364;-72
2022/05/07 10:25:00;;;;;;;27.42;20.92;;;17.30;99.90;;;;;;5080560;28;20043;-71
2022/05/07 10:27:31;;;;;;;27.52;19.98;;;17.30;99.90;;;;;;5081410;28;20108;-71
2022/05/07 10:30:13;;;;;;;25.58;18.52;;;17.40;99.90;;;;;;5067131;28;20322;-70
2022/05/07 10:33:03;;;;;;;22.25;18.13;;;17.40;99.90;;;;;;5055785;28;20240;-71
2022/05/07 10:35:53;;;;;;;25.17;18.65;;;17.70;99.90;;;;;;5083128;28;20083;-72
2022/05/07 10:38:35;;;;;;;24.58;17.80;;;17.80;99.90;;;;;;5033490;28;20047;-68
2022/05/07 10:41:16;;;;;;;21.42;17.48;;;17.60;99.90;;;;;;5035002;28;20059;-72
2022/05/07 10:44:04;;;;;;;22.73;17.45;;;17.70;99.90;;;;;;5065658;28;20043;-69
2022/05/07 10:46:44;;;;;;;23.70;17.33;;;17.50;99.90;;;;;;5032950;28;20056;-72
2022/05/07 10:49:10;;;;;;;24.50;18.10;;;17.70;99.90;;;;;;5075324;28;20111;-70
2022/05/07 10:51:50;;;;;;;25.95;18.52;;;17.70;99.90;;;;;;5038254;28;20044;-72
2022/05/07 10:54:26;;;;;;;29.00;19.55;;;17.70;99.90;;;;;;5050750;28;20033;-75
2022/05/07 10:56:55;;;;;;;24.95;19.15;;;17.90;99.90;;;;;;5041989;28;20036;-70
2022/05/07 10:59:22;;;;;;;22.48;17.45;;;17.80;99.90;;;;;;5061595;28;20037;-70
2022/05/07 11:01:49;;;;;;;27.80;20.02;;;17.70;99.90;;;;;;5041352;28;20052;-72
2022/05/07 11:04:18;;;;;;;29.95;21.08;;;17.40;99.90;;;;;;5071541;28;20098;-70
2022/05/07 11:06:52;;;;;;;26.00;19.95;;;17.70;99.90;;;;;;5058950;28;20600;-72
2022/05/07 11:09:23;;;;;;;23.90;17.00;;;17.70;99.90;;;;;;5057371;28;20354;-70
2022/05/07 11:11:54;;;;;;;23.85;16.23;;;17.50;99.90;;;;;;5023868;28;20065;-70
2022/05/07 11:14:32;;;;;;;19.30;15.95;;;17.40;99.90;;;;;;5041755;28;20387;-71
2022/05/07 11:17:00;;;;;;;16.70;13.80;;;17.20;99.90;;;;;;5036483;28;20037;-68
2022/05/07 11:19:34;;;;;;;16.27;12.77;;;17.00;99.90;;;;;;5043248;28;20048;-70
2022/05/07 11:22:02;;;;;;;16.70;12.47;;;17.00;99.90;;;;;;5043365;28;20049;-70
2022/05/07 11:24:32;;;;;;;17.35;12.63;;;16.90;99.90;;;;;;5043088;28;20298;-72
2022/05/07 11:27:06;;;;;;;18.30;13.48;;;16.80;99.90;;;;;;5055828;28;20064;-70
2022/05/07 11:29:33;;;;;;;18.02;13.35;;;16.90;99.90;;;;;;5034086;28;20043;-71
2022/05/07 11:32:05;;;;;;;17.08;12.00;;;17.10;99.90;;;;;;5043954;28;20039;-71
2022/05/07 11:34:34;;;;;;;20.17;14.18;;;17.30;99.90;;;;;;5044187;28;20361;-73
2022/05/07 11:37:16;;;;;;;16.38;13.70;;;17.30;99.90;;;;;;5047470;28;20033;-73
2022/05/07 11:39:49;;;;;;;17.02;12.45;;;17.30;99.90;;;;;;5044583;28;20043;-70
2022/05/07 11:42:30;;;;;;;18.27;12.75;;;17.20;99.90;;;;;;5042754;28;20212;-74
2022/05/07 11:48:05;;;;;;;22.70;14.63;;;17.20;99.90;;;;;;5027205;28;21047;-71
2022/05/07 11:50:33;;;;;;;21.20;15.82;;;17.20;99.90;;;;;;5047212;28;20231;-70
2022/05/07 11:53:16;;;;;;;18.85;14.32;;;17.20;99.90;;;;;;5076741;28;20047;-72
2022/05/07 11:55:43;;;;;;;18.35;13.30;;;17.30;99.90;;;;;;5025096;28;20032;-72
2022/05/07 11:58:20;;;;;;;18.60;15.13;;;17.20;99.90;;;;;;5036571;28;20044;-70
2022/05/07 12:00:48;;;;;;;17.63;13.85;;;17.30;99.90;;;;;;5071083;28;20036;-71
2022/05/07 12:03:19;;;;;;;16.10;12.05;;;17.00;99.90;;;;;;5040660;28;20259;-70
2022/05/07 12:05:47;;;;;;;11.45;9.15;;;16.90;99.90;;;;;;5074144;28;20232;-70
2022/05/07 12:08:16;;;;;;;10.63;7.63;;;16.90;99.90;;;;;;5040740;28;20321;-71
2022/05/07 12:10:46;;;;;;;8.85;6.90;;;16.80;99.90;;;;;;5041714;28;20033;-70
2022/05/07 12:13:15;;;;;;;9.75;7.30;;;16.80;99.90;;;;;;5067420;28;20325;-71
2022/05/07 12:18:27;;;;;;;12.40;7.28;;;17.30;99.90;;;;;;5077576;28;20238;-73
2022/05/07 12:20:54;;;;;;;9.88;7.30;;;17.40;99.90;;;;;;5056769;28;20075;-72
2022/05/07 12:31:32;;;;;;;8.90;6.57;;;17.90;99.90;;;;;;5037612;28;20037;-72
2022/05/07 12:33:58;;;;;;;10.38;7.68;;;18.00;99.90;;;;;;5041408;28;20028;-70
2022/05/07 12:36:26;;;;;;;9.55;7.20;;;18.00;99.90;;;;;;5057182;28;20040;-71
2022/05/07 12:38:52;;;;;;;10.40;7.45;;;17.90;99.90;;;;;;5041777;28;20155;-73
2022/05/07 12:41:19;;;;;;;9.65;7.15;;;17.90;99.90;;;;;;5075191;28;20043;-71
2022/05/07 12:43:45;;;;;;;9.65;7.00;;;18.10;99.90;;;;;;5076603;28;20051;-71
2022/05/07 12:46:11;;;;;;;9.13;7.28;;;18.20;99.90;;;;;;5081260;28;20079;-69
2022/05/07 12:48:37;;;;;;;11.23;8.43;;;17.70;99.90;;;;;;5040469;28;20097;-70
2022/05/07 12:51:02;;;;;;;10.77;7.68;;;17.70;99.90;;;;;;5047037;28;20067;-70
2022/05/07 12:53:28;;;;;;;10.27;8.15;;;17.50;99.90;;;;;;5039628;28;20035;-71
2022/05/07 12:55:54;;;;;;;10.40;8.30;;;17.70;99.90;;;;;;5036701;28;20037;-70
2022/05/07 12:58:20;;;;;;;10.95;7.35;;;17.70;99.90;;;;;;5080256;28;20108;-71
2022/05/07 13:00:45;;;;;;;10.10;8.75;;;17.70;99.90;;;;;;5030812;28;20036;-70
2022/05/07 13:03:11;;;;;;;13.13;10.07;;;17.70;99.90;;;;;;5064788;28;20037;-70
2022/05/07 13:05:38;;;;;;;12.73;9.75;;;17.50;99.90;;;;;;5045818;28;20051;-69
2022/05/07 13:08:05;;;;;;;17.23;11.38;;;17.40;99.90;;;;;;5030688;28;20383;-71
2022/05/07 13:10:32;;;;;;;12.65;10.05;;;17.50;99.90;;;;;;5033433;28;20372;-70
2022/05/07 13:12:59;;;;;;;13.85;10.75;;;17.70;99.90;;;;;;5080143;28;20041;-69
2022/05/07 13:15:29;;;;;;;12.73;10.27;;;17.70;99.90;;;;;;5068707;28;20041;-73
2022/05/07 13:18:01;;;;;;;12.65;9.48;;;17.70;99.90;;;;;;5044043;28;20045;-70